sensor_id;sensor_type;location;lat;lon;timestamp;temperature;humidity
32769;DHT22;23049;54.304;8.826;2023-07-24T00:01:50;18.30;99.90
32769;DHT22;23049;54.304;8.826;2023-07-24T00:04:16;18.30;99.90
32769;DHT22;23049;54.304;8.826;2023-07-24T00:06:41;18.30;99.90
32769;DHT22;23049;54.304;8.826;2023-07-24T00:09:07;18.30;99.90
32769;DHT22;23049;54.304;8.826;2023-07-24T00:11:32;18.30;99.90
32769;DHT22;23049;54.304;8.826;2023-07-24T00:13:58;18.30;99.90
32769;DHT22;23049;54.304;8.826;2023-07-24T00:16:23;18.30;99.90
32769;DHT22;23049;54.304;8.826;2023-07-24T00:18:49;18.30;99.90
32769;DHT22;23049;54.304;8.826;2023-07-24T00:21:14;18.40;99.90
32769;DHT22;23049;54.304;8.826;2023-07-24T00:23:40;18.40;99.90
32769;DHT22;23049;54.304;8.826;2023-07-24T00:26:05;18.40;99.90
32769;DHT22;23049;54.304;8.826;2023-07-24T00:28:32;18.40;99.90
32769;DHT22;23049;54.304;8.826;2023-07-24T00:30:57;18.40;99.90
32769;DHT22;23049;54.304;8.826;2023-07-24T00:33:23;18.40;99.90
32769;DHT22;23049;54.304;8.826;2023-07-24T00:35:48;18.40;99.90
32769;DHT22;23049;54.304;8.826;2023-07-24T00:38:14;18.40;99.90
32769;DHT22;23049;54.304;8.826;2023-07-24T00:40:39;18.40;99.90
32769;DHT22;23049;54.304;8.826;2023-07-24T00:43:05;18.40;99.90
32769;DHT22;23049;54.304;8.826;2023-07-24T00:45:30;18.50;99.90
32769;DHT22;23049;54.304;8.826;2023-07-24T00:47:56;18.50;99.90
32769;DHT22;23049;54.304;8.826;2023-07-24T00:50:21;18.40;99.90
32769;DHT22;23049;54.304;8.826;2023-07-24T00:52:48;18.40;99.90
32769;DHT22;23049;54.304;8.826;2023-07-24T00:55:13;18.50;99.90
32769;DHT22;23049;54.304;8.826;2023-07-24T00:57:41;18.50;99.90
32769;DHT22;23049;54.304;8.826;2023-07-24T01:00:07;18.40;99.90
32769;DHT22;23049;54.304;8.826;2023-07-24T01:02:34;18.50;99.90
32769;DHT22;23049;54.304;8.826;2023-07-24T01:04:59;18.50;99.90
32769;DHT22;23049;54.304;8.826;2023-07-24T01:07:25;18.50;99.90
32769;DHT22;23049;54.304;8.826;2023-07-24T01:09:51;18.50;99.90
32769;DHT22;23049;54.304;8.826;2023-07-24T01:12:19;18.50;99.90
32769;DHT22;23049;54.304;8.826;2023-07-24T01:14:55;18.50;99.90
32769;DHT22;23049;54.304;8.826;2023-07-24T01:17:23;18.40;99.90
32769;DHT22;23049;54.304;8.826;2023-07-24T01:19:51;18.40;99.90
32769;DHT22;23049;54.304;8.826;2023-07-24T01:27:30;18.30;99.90
32769;DHT22;23049;54.304;8.826;2023-07-24T01:29:56;18.20;99.90
32769;DHT22;23049;54.304;8.826;2023-07-24T01:32:21;18.20;99.90
32769;DHT22;23049;54.304;8.826;2023-07-24T01:34:47;18.20;99.90
32769;DHT22;23049;54.304;8.826;2023-07-24T01:37:13;18.20;99.90
32769;DHT22;23049;54.304;8.826;2023-07-24T01:39:41;18.20;99.90
32769;DHT22;23049;54.304;8.826;2023-07-24T01:42:08;18.20;99.90
32769;DHT22;23049;54.304;8.826;2023-07-24T01:45:31;18.10;99.90
32769;DHT22;23049;54.304;8.826;2023-07-24T01:47:57;18.20;99.90
32769;DHT22;23049;54.304;8.826;2023-07-24T01:50:23;18.20;99.90
32769;DHT22;23049;54.304;8.826;2023-07-24T01:52:48;18.30;99.90
32769;DHT22;23049;54.304;8.826;2023-07-24T01:55:14;18.30;99.90
32769;DHT22;23049;54.304;8.826;2023-07-24T01:57:39;18.30;99.90
32769;DHT22;23049;54.304;8.826;2023-07-24T02:00:05;18.30;99.90
32769;DHT22;23049;54.304;8.826;2023-07-24T02:02:31;18.40;99.90
32769;DHT22;23049;54.304;8.826;2023-07-24T02:04:56;18.30;99.90
32769;DHT22;23049;54.304;8.826;2023-07-24T02:07:22;18.40;99.90
32769;DHT22;23049;54.304;8.826;2023-07-24T02:09:47;18.40;99.90
32769;DHT22;23049;54.304;8.826;2023-07-24T02:12:13;18.40;99.90
32769;DHT22;23049;54.304;8.826;2023-07-24T02:14:38;18.40;99.90
32769;DHT22;23049;54.304;8.826;2023-07-24T02:17:04;18.40;99.90
32769;DHT22;23049;54.304;8.826;2023-07-24T02:19:30;18.50;99.90
32769;DHT22;23049;54.304;8.826;2023-07-24T02:21:55;18.50;99.90
32769;DHT22;23049;54.304;8.826;2023-07-24T02:24:21;18.50;99.90
32769;DHT22;23049;54.304;8.826;2023-07-24T02:26:46;18.50;99.90
32769;DHT22;23049;54.304;8.826;2023-07-24T02:30:38;18.50;99.90
32769;DHT22;23049;54.304;8.826;2023-07-24T02:33:03;18.60;99.90
32769;DHT22;23049;54.304;8.826;2023-07-24T02:35:29;18.60;99.90
32769;DHT22;23049;54.304;8.826;2023-07-24T02:37:54;18.70;99.90
32769;DHT22;23049;54.304;8.826;2023-07-24T02:40:20;18.60;99.90
32769;DHT22;23049;54.304;8.826;2023-07-24T02:45:10;18.30;99.90
32769;DHT22;23049;54.304;8.826;2023-07-24T02:47:36;18.30;99.90
32769;DHT22;23049;54.304;8.826;2023-07-24T02:50:02;18.20;99.90
32769;DHT22;23049;54.304;8.826;2023-07-24T02:52:27;18.20;99.90
32769;DHT22;23049;54.304;8.826;2023-07-24T02:54:53;18.20;99.90
32769;DHT22;23049;54.304;8.826;2023-07-24T02:57:19;18.20;99.90
32769;DHT22;23049;54.304;8.826;2023-07-24T02:59:44;18.10;99.90
32769;DHT22;23049;54.304;8.826;2023-07-24T03:02:10;18.10;99.90
32769;DHT22;23049;54.304;8.826;2023-07-24T03:04:36;18.10;99.90
32769;DHT22;23049;54.304;8.826;2023-07-24T03:07:01;18.10;99.90
32769;DHT22;23049;54.304;8.826;2023-07-24T03:09:27;18.00;99.90
32769;DHT22;23049;54.304;8.826;2023-07-24T03:11:52;18.00;99.90
32769;DHT22;23049;54.304;8.826;2023-07-24T03:14:18;17.90;99.90
32769;DHT22;23049;54.304;8.826;2023-07-24T03:16:43;18.00;99.90
32769;DHT22;23049;54.304;8.826;2023-07-24T03:19:09;17.90;99.90
32769;DHT22;23049;54.304;8.826;2023-07-24T03:21:34;18.00;99.90
32769;DHT22;23049;54.304;8.826;2023-07-24T03:24:00;17.90;99.90
32769;DHT22;23049;54.304;8.826;2023-07-24T03:26:25;18.00;99.90
32769;DHT22;23049;54.304;8.826;2023-07-24T03:28:51;17.90;99.90
32769;DHT22;23049;54.304;8.826;2023-07-24T03:31:16;17.90;99.90
32769;DHT22;23049;54.304;8.826;2023-07-24T03:33:42;17.90;99.90
32769;DHT22;23049;54.304;8.826;2023-07-24T03:36:07;17.90;99.90
32769;DHT22;23049;54.304;8.826;2023-07-24T03:38:33;17.90;99.90
32769;DHT22;23049;54.304;8.826;2023-07-24T03:40:59;17.90;99.90
32769;DHT22;23049;54.304;8.826;2023-07-24T03:43:25;18.00;99.90
32769;DHT22;23049;54.304;8.826;2023-07-24T03:48:25;18.00;99.90
32769;DHT22;23049;54.304;8.826;2023-07-24T03:50:57;18.00;99.90
32769;DHT22;23049;54.304;8.826;2023-07-24T03:53:22;18.00;99.90
32769;DHT22;23049;54.304;8.826;2023-07-24T03:55:48;18.00;99.90
32769;DHT22;23049;54.304;8.826;2023-07-24T03:58:13;18.00;99.90
32769;DHT22;23049;54.304;8.826;2023-07-24T04:00:39;18.00;99.90
32769;DHT22;23049;54.304;8.826;2023-07-24T04:03:04;18.00;99.90
32769;DHT22;23049;54.304;8.826;2023-07-24T04:05:30;17.90;99.90
32769;DHT22;23049;54.304;8.826;2023-07-24T04:07:55;17.90;99.90
32769;DHT22;23049;54.304;8.826;2023-07-24T04:10:21;17.90;99.90
32769;DHT22;23049;54.304;8.826;2023-07-24T04:12:46;17.90;99.90
32769;DHT22;23049;54.304;8.826;2023-07-24T04:15:12;17.90;99.90
32769;DHT22;23049;54.304;8.826;2023-07-24T04:17:37;18.00;99.90
32769;DHT22;23049;54.304;8.826;2023-07-24T04:20:05;18.00;99.90
32769;DHT22;23049;54.304;8.826;2023-07-24T04:22:31;18.00;99.90
32769;DHT22;23049;54.304;8.826;2023-07-24T04:24:56;18.00;99.90
32769;DHT22;23049;54.304;8.826;2023-07-24T04:27:22;18.10;99.90
32769;DHT22;23049;54.304;8.826;2023-07-24T04:29:47;18.10;99.90
32769;DHT22;23049;54.304;8.826;2023-07-24T04:32:12;18.10;99.90
32769;DHT22;23049;54.304;8.826;2023-07-24T04:34:38;18.10;99.90
32769;DHT22;23049;54.304;8.826;2023-07-24T04:37:04;18.10;99.90
32769;DHT22;23049;54.304;8.826;2023-07-24T04:39:29;18.20;99.90
32769;DHT22;23049;54.304;8.826;2023-07-24T04:41:55;18.20;99.90
32769;DHT22;23049;54.304;8.826;2023-07-24T04:44:20;18.30;99.90
32769;DHT22;23049;54.304;8.826;2023-07-24T04:46:46;18.30;99.90
32769;DHT22;23049;54.304;8.826;2023-07-24T04:49:11;18.30;99.90
32769;DHT22;23049;54.304;8.826;2023-07-24T04:51:37;18.30;99.90
32769;DHT22;23049;54.304;8.826;2023-07-24T04:54:02;18.30;99.90
32769;DHT22;23049;54.304;8.826;2023-07-24T04:56:28;18.30;99.90
32769;DHT22;23049;54.304;8.826;2023-07-24T04:58:53;18.30;99.90
32769;DHT22;23049;54.304;8.826;2023-07-24T05:01:19;18.30;99.90
32769;DHT22;23049;54.304;8.826;2023-07-24T05:03:44;18.30;99.90
32769;DHT22;23049;54.304;8.826;2023-07-24T05:06:10;18.30;99.90
32769;DHT22;23049;54.304;8.826;2023-07-24T05:08:35;18.30;99.90
32769;DHT22;23049;54.304;8.826;2023-07-24T05:11:01;18.20;99.90
32769;DHT22;23049;54.304;8.826;2023-07-24T05:13:26;18.20;99.90
32769;DHT22;23049;54.304;8.826;2023-07-24T05:15:52;18.20;99.90
32769;DHT22;23049;54.304;8.826;2023-07-24T05:18:17;18.30;99.90
32769;DHT22;23049;54.304;8.826;2023-07-24T05:20:46;18.30;99.90
32769;DHT22;23049;54.304;8.826;2023-07-24T05:23:12;18.30;99.90
32769;DHT22;23049;54.304;8.826;2023-07-24T05:25:38;18.30;99.90
32769;DHT22;23049;54.304;8.826;2023-07-24T05:28:04;18.40;99.90
32769;DHT22;23049;54.304;8.826;2023-07-24T05:30:29;18.40;99.90
32769;DHT22;23049;54.304;8.826;2023-07-24T05:32:55;18.30;99.90
32769;DHT22;23049;54.304;8.826;2023-07-24T05:35:20;18.40;99.90
32769;DHT22;23049;54.304;8.826;2023-07-24T05:37:46;18.40;99.90
32769;DHT22;23049;54.304;8.826;2023-07-24T05:40:11;18.40;99.90
32769;DHT22;23049;54.304;8.826;2023-07-24T05:42:37;18.40;99.90
32769;DHT22;23049;54.304;8.826;2023-07-24T05:45:07;18.50;99.90
32769;DHT22;23049;54.304;8.826;2023-07-24T05:47:33;18.60;99.90
32769;DHT22;23049;54.304;8.826;2023-07-24T05:49:58;18.60;99.90
32769;DHT22;23049;54.304;8.826;2023-07-24T05:52:24;18.60;99.90
32769;DHT22;23049;54.304;8.826;2023-07-24T05:54:49;18.60;99.90
32769;DHT22;23049;54.304;8.826;2023-07-24T05:57:15;18.60;99.90
32769;DHT22;23049;54.304;8.826;2023-07-24T05:59:40;18.50;99.90
32769;DHT22;23049;54.304;8.826;2023-07-24T06:02:06;18.50;99.90
32769;DHT22;23049;54.304;8.826;2023-07-24T06:04:32;18.50;99.90
32769;DHT22;23049;54.304;8.826;2023-07-24T06:06:58;18.40;99.90
32769;DHT22;23049;54.304;8.826;2023-07-24T06:09:23;18.50;99.90
32769;DHT22;23049;54.304;8.826;2023-07-24T06:11:49;18.40;99.90
32769;DHT22;23049;54.304;8.826;2023-07-24T06:14:14;18.40;99.90
32769;DHT22;23049;54.304;8.826;2023-07-24T06:16:40;18.50;99.90
32769;DHT22;23049;54.304;8.826;2023-07-24T06:19:05;18.60;99.90
32769;DHT22;23049;54.304;8.826;2023-07-24T06:21:31;18.70;99.90
32769;DHT22;23049;54.304;8.826;2023-07-24T06:23:56;18.70;99.90
32769;DHT22;23049;54.304;8.826;2023-07-24T06:26:22;18.70;99.90
32769;DHT22;23049;54.304;8.826;2023-07-24T06:28:48;18.60;99.90
32769;DHT22;23049;54.304;8.826;2023-07-24T06:31:13;18.60;99.90
32769;DHT22;23049;54.304;8.826;2023-07-24T06:33:39;18.60;99.90
32769;DHT22;23049;54.304;8.826;2023-07-24T06:36:08;18.60;99.90
32769;DHT22;23049;54.304;8.826;2023-07-24T06:38:34;18.60;99.90
32769;DHT22;23049;54.304;8.826;2023-07-24T06:40:59;18.70;99.90
32769;DHT22;23049;54.304;8.826;2023-07-24T06:43:25;18.70;99.90
32769;DHT22;23049;54.304;8.826;2023-07-24T06:45:50;18.70;99.90
32769;DHT22;23049;54.304;8.826;2023-07-24T06:48:16;18.70;99.90
32769;DHT22;23049;54.304;8.826;2023-07-24T06:50:41;18.70;99.90
32769;DHT22;23049;54.304;8.826;2023-07-24T06:53:07;18.60;99.90
32769;DHT22;23049;54.304;8.826;2023-07-24T06:55:32;18.60;99.90
32769;DHT22;23049;54.304;8.826;2023-07-24T06:57:57;18.60;99.90
32769;DHT22;23049;54.304;8.826;2023-07-24T07:00:23;18.60;99.90
32769;DHT22;23049;54.304;8.826;2023-07-24T07:02:48;18.60;99.90
32769;DHT22;23049;54.304;8.826;2023-07-24T07:05:14;18.60;99.90
32769;DHT22;23049;54.304;8.826;2023-07-24T07:07:39;18.60;99.90
32769;DHT22;23049;54.304;8.826;2023-07-24T07:10:05;18.60;99.90
32769;DHT22;23049;54.304;8.826;2023-07-24T07:12:31;18.60;99.90
32769;DHT22;23049;54.304;8.826;2023-07-24T07:14:56;18.60;99.90
32769;DHT22;23049;54.304;8.826;2023-07-24T07:17:22;18.60;99.90
32769;DHT22;23049;54.304;8.826;2023-07-24T07:19:47;18.70;99.90
32769;DHT22;23049;54.304;8.826;2023-07-24T07:22:13;18.70;99.90
32769;DHT22;23049;54.304;8.826;2023-07-24T07:24:38;18.70;99.90
32769;DHT22;23049;54.304;8.826;2023-07-24T07:27:04;18.70;99.90
32769;DHT22;23049;54.304;8.826;2023-07-24T07:29:29;18.80;99.90
32769;DHT22;23049;54.304;8.826;2023-07-24T07:31:56;18.80;99.90
32769;DHT22;23049;54.304;8.826;2023-07-24T07:34:22;18.80;99.90
32769;DHT22;23049;54.304;8.826;2023-07-24T07:36:47;18.90;99.90
32769;DHT22;23049;54.304;8.826;2023-07-24T07:41:47;18.90;99.90
32769;DHT22;23049;54.304;8.826;2023-07-24T07:44:13;18.90;99.90
32769;DHT22;23049;54.304;8.826;2023-07-24T07:46:38;18.90;99.90
32769;DHT22;23049;54.304;8.826;2023-07-24T07:49:04;18.90;99.90
32769;DHT22;23049;54.304;8.826;2023-07-24T07:51:29;18.90;99.90
32769;DHT22;23049;54.304;8.826;2023-07-24T07:53:54;18.90;99.90
32769;DHT22;23049;54.304;8.826;2023-07-24T07:56:20;19.00;99.90
32769;DHT22;23049;54.304;8.826;2023-07-24T07:58:45;19.20;99.90
32769;DHT22;23049;54.304;8.826;2023-07-24T08:01:11;19.20;99.90
32769;DHT22;23049;54.304;8.826;2023-07-24T08:03:36;19.10;99.90
32769;DHT22;23049;54.304;8.826;2023-07-24T08:06:02;19.10;99.90
32769;DHT22;23049;54.304;8.826;2023-07-24T08:08:28;19.00;99.90
32769;DHT22;23049;54.304;8.826;2023-07-24T08:10:53;19.10;99.90
32769;DHT22;23049;54.304;8.826;2023-07-24T08:13:19;19.00;99.90
32769;DHT22;23049;54.304;8.826;2023-07-24T08:15:44;18.90;99.90
32769;DHT22;23049;54.304;8.826;2023-07-24T08:18:10;19.00;99.90
32769;DHT22;23049;54.304;8.826;2023-07-24T08:20:35;19.00;99.90
32769;DHT22;23049;54.304;8.826;2023-07-24T08:23:01;19.10;99.90
32769;DHT22;23049;54.304;8.826;2023-07-24T08:25:26;19.00;99.90
32769;DHT22;23049;54.304;8.826;2023-07-24T08:27:52;19.10;99.90
32769;DHT22;23049;54.304;8.826;2023-07-24T08:30:17;19.10;99.90
32769;DHT22;23049;54.304;8.826;2023-07-24T08:32:43;19.10;99.90
32769;DHT22;23049;54.304;8.826;2023-07-24T08:35:09;19.10;99.90
32769;DHT22;23049;54.304;8.826;2023-07-24T08:37:34;19.20;99.90
32769;DHT22;23049;54.304;8.826;2023-07-24T08:40:00;19.10;99.90
32769;DHT22;23049;54.304;8.826;2023-07-24T08:45:17;19.30;99.90
32769;DHT22;23049;54.304;8.826;2023-07-24T08:47:43;19.40;99.90
32769;DHT22;23049;54.304;8.826;2023-07-24T08:50:12;19.50;99.90
32769;DHT22;23049;54.304;8.826;2023-07-24T08:52:41;19.60;99.90
32769;DHT22;23049;54.304;8.826;2023-07-24T08:55:07;19.60;99.90
32769;DHT22;23049;54.304;8.826;2023-07-24T08:57:33;19.80;99.90
32769;DHT22;23049;54.304;8.826;2023-07-24T09:02:34;19.90;99.90
32769;DHT22;23049;54.304;8.826;2023-07-24T09:05:00;19.90;99.90
32769;DHT22;23049;54.304;8.826;2023-07-24T09:07:26;20.00;99.90
32769;DHT22;23049;54.304;8.826;2023-07-24T09:09:51;20.10;99.90
32769;DHT22;23049;54.304;8.826;2023-07-24T09:15:04;20.00;99.90
32769;DHT22;23049;54.304;8.826;2023-07-24T09:17:30;19.90;99.90
32769;DHT22;23049;54.304;8.826;2023-07-24T09:19:56;19.80;99.90
32769;DHT22;23049;54.304;8.826;2023-07-24T09:22:22;19.90;99.90
32769;DHT22;23049;54.304;8.826;2023-07-24T09:24:51;19.90;99.90
32769;DHT22;23049;54.304;8.826;2023-07-24T09:27:17;19.90;99.90
32769;DHT22;23049;54.304;8.826;2023-07-24T09:29:43;20.00;99.90
32769;DHT22;23049;54.304;8.826;2023-07-24T09:34:53;20.10;99.90
32769;DHT22;23049;54.304;8.826;2023-07-24T09:37:23;20.20;99.90
32769;DHT22;23049;54.304;8.826;2023-07-24T09:39:48;20.30;99.90
32769;DHT22;23049;54.304;8.826;2023-07-24T09:42:14;20.40;99.90
32769;DHT22;23049;54.304;8.826;2023-07-24T09:44:39;20.40;99.90
32769;DHT22;23049;54.304;8.826;2023-07-24T09:47:05;20.40;99.90
32769;DHT22;23049;54.304;8.826;2023-07-24T09:49:31;20.30;99.90
32769;DHT22;23049;54.304;8.826;2023-07-24T09:51:56;20.40;99.90
32769;DHT22;23049;54.304;8.826;2023-07-24T09:54:25;20.40;99.90
32769;DHT22;23049;54.304;8.826;2023-07-24T09:56:54;20.40;99.90
32769;DHT22;23049;54.304;8.826;2023-07-24T09:59:20;20.40;99.90
32769;DHT22;23049;54.304;8.826;2023-07-24T10:01:46;20.30;99.90
32769;DHT22;23049;54.304;8.826;2023-07-24T10:04:12;20.40;99.90
32769;DHT22;23049;54.304;8.826;2023-07-24T10:06:39;20.40;99.90
32769;DHT22;23049;54.304;8.826;2023-07-24T10:09:04;20.60;99.90
32769;DHT22;23049;54.304;8.826;2023-07-24T10:11:31;20.60;99.90
32769;DHT22;23049;54.304;8.826;2023-07-24T10:13:57;20.60;99.90
32769;DHT22;23049;54.304;8.826;2023-07-24T10:16:22;20.90;99.90
32769;DHT22;23049;54.304;8.826;2023-07-24T10:18:48;21.00;99.90
32769;DHT22;23049;54.304;8.826;2023-07-24T10:23:43;21.00;99.90
32769;DHT22;23049;54.304;8.826;2023-07-24T10:26:09;21.00;99.90
32769;DHT22;23049;54.304;8.826;2023-07-24T10:28:37;20.70;99.90
32769;DHT22;23049;54.304;8.826;2023-07-24T10:31:18;20.50;99.90
32769;DHT22;23049;54.304;8.826;2023-07-24T10:33:44;20.40;99.90
32769;DHT22;23049;54.304;8.826;2023-07-24T10:36:10;20.40;99.90
32769;DHT22;23049;54.304;8.826;2023-07-24T10:38:39;20.50;99.90
32769;DHT22;23049;54.304;8.826;2023-07-24T10:41:05;20.40;99.90
32769;DHT22;23049;54.304;8.826;2023-07-24T10:46:09;20.40;99.90
32769;DHT22;23049;54.304;8.826;2023-07-24T10:48:34;20.50;99.90
32769;DHT22;23049;54.304;8.826;2023-07-24T10:51:05;20.50;99.90
32769;DHT22;23049;54.304;8.826;2023-07-24T10:53:31;20.50;99.90
32769;DHT22;23049;54.304;8.826;2023-07-24T10:55:57;20.60;99.90
32769;DHT22;23049;54.304;8.826;2023-07-24T10:58:25;20.60;99.90
32769;DHT22;23049;54.304;8.826;2023-07-24T11:00:52;20.80;99.90
32769;DHT22;23049;54.304;8.826;2023-07-24T11:05:41;20.90;99.90
32769;DHT22;23049;54.304;8.826;2023-07-24T11:08:14;21.20;99.90
32769;DHT22;23049;54.304;8.826;2023-07-24T11:10:53;21.50;99.90
32769;DHT22;23049;54.304;8.826;2023-07-24T11:13:23;21.60;99.90
32769;DHT22;23049;54.304;8.826;2023-07-24T11:15:49;21.70;99.90
32769;DHT22;23049;54.304;8.826;2023-07-24T11:18:15;21.80;99.90
32769;DHT22;23049;54.304;8.826;2023-07-24T11:20:44;21.70;99.90
32769;DHT22;23049;54.304;8.826;2023-07-24T11:23:11;21.70;99.90
32769;DHT22;23049;54.304;8.826;2023-07-24T11:25:36;21.60;99.90
32769;DHT22;23049;54.304;8.826;2023-07-24T11:28:04;21.50;99.90
32769;DHT22;23049;54.304;8.826;2023-07-24T11:30:29;21.30;99.90
32769;DHT22;23049;54.304;8.826;2023-07-24T11:32:56;21.30;99.90
32769;DHT22;23049;54.304;8.826;2023-07-24T11:35:22;21.50;99.90
32769;DHT22;23049;54.304;8.826;2023-07-24T11:40:35;21.70;99.90
32769;DHT22;23049;54.304;8.826;2023-07-24T11:43:01;21.80;99.90
32769;DHT22;23049;54.304;8.826;2023-07-24T11:45:27;21.80;99.90
32769;DHT22;23049;54.304;8.826;2023-07-24T11:47:53;21.60;99.90
32769;DHT22;23049;54.304;8.826;2023-07-24T11:50:19;21.40;99.90
32769;DHT22;23049;54.304;8.826;2023-07-24T11:52:47;21.40;99.90
32769;DHT22;23049;54.304;8.826;2023-07-24T11:55:13;21.30;99.90
32769;DHT22;23049;54.304;8.826;2023-07-24T11:57:39;21.20;99.90
32769;DHT22;23049;54.304;8.826;2023-07-24T12:00:05;21.20;99.90
32769;DHT22;23049;54.304;8.826;2023-07-24T12:04:59;21.30;99.90
32769;DHT22;23049;54.304;8.826;2023-07-24T12:07:31;21.40;99.90
32769;DHT22;23049;54.304;8.826;2023-07-24T12:09:57;21.40;99.90
32769;DHT22;23049;54.304;8.826;2023-07-24T12:12:23;21.40;99.90
32769;DHT22;23049;54.304;8.826;2023-07-24T12:14:48;21.40;99.90
32769;DHT22;23049;54.304;8.826;2023-07-24T12:17:17;21.40;99.90
32769;DHT22;23049;54.304;8.826;2023-07-24T12:19:43;21.20;99.90
32769;DHT22;23049;54.304;8.826;2023-07-24T12:24:50;21.60;99.90
32769;DHT22;23049;54.304;8.826;2023-07-24T12:32:19;21.90;99.90
32769;DHT22;23049;54.304;8.826;2023-07-24T12:34:46;21.80;99.90
32769;DHT22;23049;54.304;8.826;2023-07-24T12:37:12;21.50;99.90
32769;DHT22;23049;54.304;8.826;2023-07-24T12:39:37;21.50;99.90
32769;DHT22;23049;54.304;8.826;2023-07-24T12:42:04;21.40;99.90
32769;DHT22;23049;54.304;8.826;2023-07-24T12:44:29;21.40;99.90
32769;DHT22;23049;54.304;8.826;2023-07-24T12:46:55;21.40;99.90
32769;DHT22;23049;54.304;8.826;2023-07-24T12:49:20;21.30;99.90
32769;DHT22;23049;54.304;8.826;2023-07-24T12:51:46;21.30;99.90
32769;DHT22;23049;54.304;8.826;2023-07-24T12:54:11;21.20;99.90
32769;DHT22;23049;54.304;8.826;2023-07-24T12:56:37;21.30;99.90
32769;DHT22;23049;54.304;8.826;2023-07-24T12:59:02;21.40;99.90
32769;DHT22;23049;54.304;8.826;2023-07-24T13:01:29;21.50;99.90
32769;DHT22;23049;54.304;8.826;2023-07-24T13:03:54;22.00;99.90
32769;DHT22;23049;54.304;8.826;2023-07-24T13:06:20;22.10;99.90
32769;DHT22;23049;54.304;8.826;2023-07-24T13:08:45;22.20;99.90
32769;DHT22;23049;54.304;8.826;2023-07-24T13:11:11;22.10;99.90
32769;DHT22;23049;54.304;8.826;2023-07-24T13:13:37;21.80;99.90
32769;DHT22;23049;54.304;8.826;2023-07-24T13:16:02;21.70;99.90
32769;DHT22;23049;54.304;8.826;2023-07-24T13:18:28;21.40;99.90
32769;DHT22;23049;54.304;8.826;2023-07-24T13:20:54;21.30;99.90
32769;DHT22;23049;54.304;8.826;2023-07-24T13:23:20;21.20;99.90
32769;DHT22;23049;54.304;8.826;2023-07-24T13:28:19;21.10;99.90
32769;DHT22;23049;54.304;8.826;2023-07-24T13:30:45;21.10;99.90
32769;DHT22;23049;54.304;8.826;2023-07-24T13:35:47;21.50;99.90
32769;DHT22;23049;54.304;8.826;2023-07-24T13:38:13;21.80;99.90
32769;DHT22;23049;54.304;8.826;2023-07-24T13:40:39;21.90;99.90
32769;DHT22;23049;54.304;8.826;2023-07-24T13:43:05;22.00;99.90
32769;DHT22;23049;54.304;8.826;2023-07-24T13:45:30;22.00;99.90
32769;DHT22;23049;54.304;8.826;2023-07-24T13:47:57;22.00;99.90
32769;DHT22;23049;54.304;8.826;2023-07-24T13:50:22;21.80;99.90
32769;DHT22;23049;54.304;8.826;2023-07-24T13:52:48;21.90;99.90
32769;DHT22;23049;54.304;8.826;2023-07-24T13:55:13;21.90;99.90
32769;DHT22;23049;54.304;8.826;2023-07-24T13:57:39;21.80;99.90
32769;DHT22;23049;54.304;8.826;2023-07-24T14:00:05;21.80;99.90
32769;DHT22;23049;54.304;8.826;2023-07-24T14:07:48;21.30;99.90
32769;DHT22;23049;54.304;8.826;2023-07-24T14:10:14;21.40;99.90
32769;DHT22;23049;54.304;8.826;2023-07-24T14:12:39;21.40;99.90
32769;DHT22;23049;54.304;8.826;2023-07-24T14:17:37;21.10;99.90
32769;DHT22;23049;54.304;8.826;2023-07-24T14:20:03;20.90;99.90
32769;DHT22;23049;54.304;8.826;2023-07-24T14:25:13;20.80;99.90
32769;DHT22;23049;54.304;8.826;2023-07-24T14:27:39;20.80;99.90
32769;DHT22;23049;54.304;8.826;2023-07-24T14:30:05;20.80;99.90
32769;DHT22;23049;54.304;8.826;2023-07-24T14:32:30;20.80;99.90
32769;DHT22;23049;54.304;8.826;2023-07-24T14:34:56;20.70;99.90
32769;DHT22;23049;54.304;8.826;2023-07-24T14:37:21;20.80;99.90
32769;DHT22;23049;54.304;8.826;2023-07-24T14:39:47;20.80;99.90
32769;DHT22;23049;54.304;8.826;2023-07-24T14:42:12;20.80;99.90
32769;DHT22;23049;54.304;8.826;2023-07-24T14:44:38;20.70;99.90
32769;DHT22;23049;54.304;8.826;2023-07-24T14:47:04;20.70;99.90
32769;DHT22;23049;54.304;8.826;2023-07-24T14:49:29;20.90;99.90
32769;DHT22;23049;54.304;8.826;2023-07-24T14:51:55;21.10;99.90
32769;DHT22;23049;54.304;8.826;2023-07-24T14:54:20;21.10;99.90
32769;DHT22;23049;54.304;8.826;2023-07-24T14:56:46;21.20;99.90
32769;DHT22;23049;54.304;8.826;2023-07-24T14:59:11;21.30;99.90
32769;DHT22;23049;54.304;8.826;2023-07-24T15:01:37;21.30;99.90
32769;DHT22;23049;54.304;8.826;2023-07-24T15:04:02;21.00;99.90
32769;DHT22;23049;54.304;8.826;2023-07-24T15:06:28;20.70;99.90
32769;DHT22;23049;54.304;8.826;2023-07-24T15:08:53;20.80;99.90
32769;DHT22;23049;54.304;8.826;2023-07-24T15:11:21;20.60;99.90
32769;DHT22;23049;54.304;8.826;2023-07-24T15:16:09;20.20;99.90
32769;DHT22;23049;54.304;8.826;2023-07-24T15:18:35;20.40;99.90
32769;DHT22;23049;54.304;8.826;2023-07-24T15:21:00;20.40;99.90
32769;DHT22;23049;54.304;8.826;2023-07-24T15:23:26;20.40;99.90
32769;DHT22;23049;54.304;8.826;2023-07-24T15:25:51;20.40;99.90
32769;DHT22;23049;54.304;8.826;2023-07-24T15:28:17;20.20;99.90
32769;DHT22;23049;54.304;8.826;2023-07-24T15:30:43;19.90;99.90
32769;DHT22;23049;54.304;8.826;2023-07-24T15:33:08;19.60;99.90
32769;DHT22;23049;54.304;8.826;2023-07-24T15:35:34;19.40;99.90
32769;DHT22;23049;54.304;8.826;2023-07-24T15:37:59;19.30;99.90
32769;DHT22;23049;54.304;8.826;2023-07-24T15:40:26;19.20;99.90
32769;DHT22;23049;54.304;8.826;2023-07-24T15:42:52;18.90;99.90
32769;DHT22;23049;54.304;8.826;2023-07-24T15:45:17;18.80;99.90
32769;DHT22;23049;54.304;8.826;2023-07-24T15:47:43;18.70;99.90
32769;DHT22;23049;54.304;8.826;2023-07-24T15:52:24;18.70;99.90
32769;DHT22;23049;54.304;8.826;2023-07-24T15:54:50;18.60;99.90
32769;DHT22;23049;54.304;8.826;2023-07-24T15:57:15;18.40;99.90
32769;DHT22;23049;54.304;8.826;2023-07-24T15:59:41;18.30;99.90
32769;DHT22;23049;54.304;8.826;2023-07-24T16:02:06;18.30;99.90
32769;DHT22;23049;54.304;8.826;2023-07-24T16:06:57;18.20;99.90
32769;DHT22;23049;54.304;8.826;2023-07-24T16:09:23;18.10;99.90
32769;DHT22;23049;54.304;8.826;2023-07-24T16:11:49;18.00;99.90
32769;DHT22;23049;54.304;8.826;2023-07-24T16:14:14;18.00;99.90
32769;DHT22;23049;54.304;8.826;2023-07-24T16:16:40;17.90;99.90
32769;DHT22;23049;54.304;8.826;2023-07-24T16:19:12;17.90;99.90
32769;DHT22;23049;54.304;8.826;2023-07-24T16:21:41;17.90;99.90
32769;DHT22;23049;54.304;8.826;2023-07-24T16:24:07;17.90;99.90
32769;DHT22;23049;54.304;8.826;2023-07-24T16:26:33;17.80;99.90
32769;DHT22;23049;54.304;8.826;2023-07-24T16:28:59;17.70;99.90
32769;DHT22;23049;54.304;8.826;2023-07-24T16:31:24;17.70;99.90